Time;durP1;ratioP1;P1;durP2;ratioP2;P2;SDS_P1;SDS_P2;PMS_P1;PMS_P2;Temp;Humidity;BMP_temperature;BMP_pressure;BME280_temperature;BME280_humidity;BME280_pressure;Samples;Min_cycle;Max_cycle;Signal;HPM_P1;HPM_P2
2023/10/22 00:00:37;;;;;;;34.50;19.98;;;;;;;1.26;79.27;99783.97;5075395;28;20075;-57
2023/10/22 00:03:03;;;;;;;31.55;19.38;;;;;;;1.37;79.10;99781.00;5091984;28;20039;-58
2023/10/22 00:05:31;;;;;;;42.60;19.38;;;;;;;1.41;78.61;99771.03;5075218;28;20089;-59
2023/10/22 00:07:57;;;;;;;36.75;18.08;;;;;;;1.42;78.35;99783.94;5090649;28;20537;-57
2023/10/22 00:10:26;;;;;;;29.58;19.30;;;;;;;1.41;78.12;99773.63;5093525;28;20046;-58
2023/10/22 00:12:51;;;;;;;37.83;19.55;;;;;;;1.42;78.63;99764.84;5075233;28;20065;-59
2023/10/22 00:15:17;;;;;;;33.72;19.13;;;;;;;1.44;78.52;99757.63;5072675;28;20038;-59
2023/10/22 00:17:43;;;;;;;38.75;18.80;;;;;;;1.47;77.91;99754.66;5092095;28;20440;-59
2023/10/22 00:20:09;;;;;;;35.72;18.98;;;;;;;1.43;78.34;99769.88;5074960;28;20048;-59
2023/10/22 00:22:35;;;;;;;46.30;19.98;;;;;;;1.43;78.09;99772.47;5093131;28;20513;-57
2023/10/22 00:25:00;;;;;;;37.67;20.67;;;;;;;1.46;78.02;99772.16;5093216;28;20032;-60
2023/10/22 00:27:27;;;;;;;41.00;21.10;;;;;;;1.50;78.16;99785.69;5075397;28;20040;-60
2023/10/22 00:29:53;;;;;;;35.08;18.45;;;;;;;1.52;78.28;99781.91;5092688;28;20466;-57
2023/10/22 00:32:19;;;;;;;45.38;19.85;;;;;;;1.58;78.04;99777.81;5092483;28;20445;-62
2023/10/22 00:34:44;;;;;;;44.25;21.38;;;;;;;1.60;77.72;99773.25;5074911;28;20047;-59
2023/10/22 00:37:10;;;;;;;35.10;18.92;;;;;;;1.58;78.51;99789.06;5055157;28;20040;-59
2023/10/22 00:39:36;;;;;;;48.97;27.35;;;;;;;1.57;78.39;99774.41;5073242;28;20074;-58
2023/10/22 00:42:02;;;;;;;69.25;31.77;;;;;;;1.60;78.97;99794.16;5038861;28;20047;-57
2023/10/22 00:44:28;;;;;;;62.38;33.13;;;;;;;1.63;79.25;99798.22;5072453;28;20045;-56
2023/10/22 00:46:54;;;;;;;50.47;23.38;;;;;;;1.63;79.24;99793.81;5072931;28;20036;-56
2023/10/22 00:49:20;;;;;;;36.50;21.63;;;;;;;1.59;79.45;99788.13;5058279;28;20044;-58
2023/10/22 00:51:46;;;;;;;35.45;20.48;;;;;;;1.61;79.42;99784.50;5075194;28;20475;-58
2023/10/22 00:54:14;;;;;;;43.05;21.75;;;;;;;1.68;79.10;99785.47;5058136;28;20428;-57
2023/10/22 00:56:41;;;;;;;35.63;18.50;;;;;;;1.71;79.19;99769.44;5093258;28;20040;-58
2023/10/22 00:59:08;;;;;;;38.00;19.00;;;;;;;1.66;78.96;99766.53;5074939;28;20040;-58
2023/10/22 01:01:34;;;;;;;36.25;19.17;;;;;;;1.66;78.87;99763.91;5058313;28;20408;-58
2023/10/22 01:03:59;;;;;;;43.03;19.88;;;;;;;1.69;78.93;99759.16;5092948;28;20048;-58
2023/10/22 01:06:25;;;;;;;43.30;21.92;;;;;;;1.75;78.33;99750.63;5075029;28;20036;-58
2023/10/22 01:08:53;;;;;;;45.35;22.80;;;;;;;1.76;78.22;99761.88;5074831;28;20040;-57
2023/10/22 01:11:18;;;;;;;49.88;22.48;;;;;;;1.73;78.41;99765.66;5074843;28;20044;-58
2023/10/22 01:13:44;;;;;;;53.70;23.95;;;;;;;1.75;78.29;99766.31;5074367;28;20047;-58
2023/10/22 01:16:10;;;;;;;46.58;20.60;;;;;;;1.75;78.32;99761.09;5092806;28;20036;-58
2023/10/22 01:18:36;;;;;;;42.50;20.75;;;;;;;1.77;78.66;99763.53;5074655;28;20044;-59
2023/10/22 01:21:05;;;;;;;40.45;20.85;;;;;;;1.83;78.47;99757.63;5092248;28;20044;-57
2023/10/22 01:23:37;;;;;;;43.30;20.13;;;;;;;1.81;78.06;99775.28;5092725;28;20051;-58
2023/10/22 01:26:06;;;;;;;41.45;20.20;;;;;;;1.87;78.79;99785.03;5073916;28;20129;-59
2023/10/22 01:28:36;;;;;;;42.20;20.63;;;;;;;1.91;78.11;99794.19;5092628;28;20051;-58
2023/10/22 01:31:04;;;;;;;40.30;20.70;;;;;;;1.87;78.05;99800.72;5092626;28;20451;-56
2023/10/22 01:33:30;;;;;;;40.03;20.60;;;;;;;1.80;78.94;99797.19;5057597;28;20390;-58
2023/10/22 01:35:57;;;;;;;44.58;22.85;;;;;;;1.82;79.26;99787.34;5074017;28;20028;-58
2023/10/22 01:38:22;;;;;;;43.97;21.38;;;;;;;1.91;79.17;99783.72;5074266;28;20048;-58
2023/10/22 01:40:49;;;;;;;47.58;22.08;;;;;;;1.92;79.04;99767.06;5092357;28;20429;-60
2023/10/22 01:43:15;;;;;;;38.50;19.40;;;;;;;1.90;79.04;99755.13;5074052;28;20072;-58
2023/10/22 01:45:40;;;;;;;32.67;19.00;;;;;;;1.96;79.11;99750.03;5074044;28;20072;-59
2023/10/22 01:48:06;;;;;;;39.47;18.65;;;;;;;1.93;79.38;99742.53;5073985;28;20063;-59
2023/10/22 01:50:32;;;;;;;40.15;19.02;;;;;;;1.99;78.87;99728.75;5091548;28;20505;-58
2023/10/22 01:52:58;;;;;;;33.22;17.33;;;;;;;2.04;78.65;99725.63;5074168;28;20044;-58
2023/10/22 01:55:24;;;;;;;29.95;15.48;;;;;;;2.09;79.37;99728.56;5073041;28;20044;-58
2023/10/22 01:57:50;;;;;;;37.45;18.08;;;;;;;2.10;78.88;99724.94;5074023;28;20054;-59
2023/10/22 02:00:17;;;;;;;28.30;15.38;;;;;;;2.09;78.78;99720.72;5073688;28;20044;-59
2023/10/22 02:02:43;;;;;;;30.70;13.98;;;;;;;2.13;79.76;99706.28;5073665;28;20048;-59
2023/10/22 02:05:09;;;;;;;28.80;15.00;;;;;;;2.16;79.60;99699.91;5091857;28;20458;-59
2023/10/22 02:07:37;;;;;;;28.83;13.48;;;;;;;2.13;79.95;99695.00;5056368;28;20047;-62
2023/10/22 02:10:03;;;;;;;31.52;16.58;;;;;;;2.15;79.49;99696.47;5091818;28;20039;-58
2023/10/22 02:12:30;;;;;;;43.72;18.17;;;;;;;2.15;79.13;99685.19;5074119;28;20101;-58
2023/10/22 02:14:56;;;;;;;40.20;17.83;;;;;;;2.13;79.35;99672.28;5091246;28;20036;-59
2023/10/22 02:17:22;;;;;;;36.42;16.77;;;;;;;2.15;79.49;99686.00;5073528;28;20051;-59
2023/10/22 02:19:48;;;;;;;41.08;18.05;;;;;;;2.21;79.72;99679.25;5090781;28;20418;-57
2023/10/22 02:22:16;;;;;;;37.03;18.70;;;;;;;2.28;78.95;99669.72;5091716;28;20043;-59
2023/10/22 02:24:42;;;;;;;30.08;14.00;;;;;;;2.22;78.65;99663.38;5091637;28;20048;-60
2023/10/22 02:27:08;;;;;;;25.50;13.65;;;;;;;2.15;79.54;99677.34;5073578;28;20044;-57
2023/10/22 02:29:35;;;;;;;25.92;12.52;;;;;;;2.16;79.53;99687.63;5091506;28;20413;-59
2023/10/22 02:32:00;;;;;;;24.85;12.68;;;;;;;2.31;78.98;99690.28;5092008;28;20036;-57
2023/10/22 02:34:26;;;;;;;17.45;10.00;;;;;;;2.33;78.34;99688.31;5091894;28;20048;-58
2023/10/22 02:36:52;;;;;;;25.60;10.48;;;;;;;2.37;78.26;99683.53;5057040;28;20047;-58
2023/10/22 02:39:19;;;;;;;18.27;9.30;;;;;;;2.44;77.71;99677.44;5056710;28;20432;-58
2023/10/22 02:41:45;;;;;;;12.27;9.07;;;;;;;2.54;77.12;99686.81;5073405;28;20036;-56
2023/10/22 02:44:11;;;;;;;13.80;8.90;;;;;;;2.56;76.79;99692.69;5091553;28;20036;-58
2023/10/22 02:46:36;;;;;;;18.35;8.65;;;;;;;2.64;76.54;99692.59;5090747;28;20043;-56
2023/10/22 02:49:03;;;;;;;12.93;8.00;;;;;;;2.69;75.68;99683.22;5064389;28;20114;-54
2023/10/22 02:51:29;;;;;;;13.48;8.02;;;;;;;2.68;75.52;99671.16;5086146;28;20650;-58
2023/10/22 02:53:54;;;;;;;24.73;9.40;;;;;;;2.76;75.39;99675.47;5053096;28;20055;-57
2023/10/22 02:56:22;;;;;;;16.40;8.18;;;;;;;2.73;75.27;99679.25;5053228;28;20093;-58
2023/10/22 02:58:48;;;;;;;15.50;7.55;;;;;;;2.80;75.08;99670.72;5052053;28;20037;-57
2023/10/22 03:01:16;;;;;;;9.75;6.80;;;;;;;2.83;74.43;99658.06;5053227;28;20044;-57
2023/10/22 03:03:43;;;;;;;12.40;8.00;;;;;;;2.80;74.23;99665.47;5053259;28;20044;-58
2023/10/22 03:06:10;;;;;;;13.45;7.18;;;;;;;2.80;74.27;99668.91;5071253;28;20036;-57
2023/10/22 03:08:40;;;;;;;12.15;7.18;;;;;;;2.83;74.23;99665.91;5074709;28;20066;-57
2023/10/22 03:11:13;;;;;;;11.48;6.72;;;;;;;2.86;74.17;99662.94;5075096;28;20067;-57
2023/10/22 03:13:39;;;;;;;12.52;6.68;;;;;;;2.83;73.54;99668.53;5057071;28;20060;-58
2023/10/22 03:16:11;;;;;;;10.73;6.07;;;;;;;2.82;74.19;99666.88;5074890;28;20445;-59
2023/10/22 03:18:40;;;;;;;12.18;6.57;;;;;;;2.78;73.48;99649.94;5055937;28;20037;-59
2023/10/22 03:21:18;;;;;;;12.18;6.03;;;;;;;2.77;73.71;99650.94;5023738;28;20162;-58
2023/10/22 03:23:47;;;;;;;10.82;6.20;;;;;;;2.76;73.50;99632.78;5057019;28;20498;-57
2023/10/22 03:26:17;;;;;;;7.78;5.63;;;;;;;2.72;73.30;99632.31;5056708;28;20064;-57
2023/10/22 03:28:45;;;;;;;6.90;5.45;;;;;;;2.71;73.22;99646.41;5056284;28;20422;-58
2023/10/22 03:31:12;;;;;;;10.00;6.07;;;;;;;2.71;73.34;99649.84;5040124;28;20040;-58
2023/10/22 03:33:38;;;;;;;8.32;5.03;;;;;;;2.76;73.18;99648.47;5055316;28;20143;-59
2023/10/22 03:36:04;;;;;;;7.78;4.88;;;;;;;2.85;72.78;99652.63;5039788;28;20128;-59
2023/10/22 03:38:31;;;;;;;13.35;5.75;;;;;;;2.85;72.50;99635.09;5055743;28;20044;-58
2023/10/22 03:40:56;;;;;;;16.27;6.47;;;;;;;2.84;72.79;99641.34;5056542;28;20146;-58
2023/10/22 03:43:22;;;;;;;9.23;4.78;;;;;;;2.84;72.39;99637.94;5056307;28;20082;-61
2023/10/22 03:45:48;;;;;;;9.85;4.65;;;;;;;2.89;71.64;99648.69;5074318;28;20090;-60
2023/10/22 03:48:14;;;;;;;6.60;4.00;;;;;;;2.88;71.14;99645.25;5079415;28;20036;-57
2023/10/22 03:50:39;;;;;;;8.63;4.38;;;;;;;2.94;71.16;99635.84;5094097;28;20044;-56
2023/10/22 03:53:05;;;;;;;8.40;4.00;;;;;;;2.96;71.29;99631.25;5059749;28;20055;-58
2023/10/22 03:55:30;;;;;;;8.05;4.57;;;;;;;3.00;71.66;99637.75;5076361;28;20409;-58
2023/10/22 03:57:56;;;;;;;11.75;5.88;;;;;;;3.02;71.19;99637.56;5094274;28;20048;-59
2023/10/22 04:00:22;;;;;;;11.23;6.93;;;;;;;3.06;70.97;99644.03;5094262;28;20129;-58
2023/10/22 04:02:47;;;;;;;11.00;6.35;;;;;;;3.11;70.91;99636.47;5076223;28;20093;-58
2023/10/22 04:05:13;;;;;;;14.73;6.53;;;;;;;3.17;70.87;99633.91;5075855;28;20048;-59
2023/10/22 04:07:39;;;;;;;21.75;13.35;;;;;;;3.15;70.99;99628.06;5093911;28;20055;-56
2023/10/22 04:10:09;;;;;;;14.10;10.00;;;;;;;3.15;70.87;99637.72;5042390;28;20044;-61
2023/10/22 04:12:36;;;;;;;17.00;9.73;;;;;;;3.16;71.26;99637.53;5075761;28;20043;-56
2023/10/22 04:15:06;;;;;;;12.93;8.05;;;;;;;3.20;71.11;99622.25;5094096;28;20040;-57
2023/10/22 04:17:31;;;;;;;10.38;4.45;;;;;;;3.17;69.39;99618.19;5075490;28;20542;-57
2023/10/22 04:19:57;;;;;;;8.40;5.72;;;;;;;3.14;68.67;99631.66;5074607;28;20083;-58
2023/10/22 04:22:23;;;;;;;9.88;7.18;;;;;;;3.12;69.84;99630.25;5093639;28;20051;-59
2023/10/22 04:24:48;;;;;;;15.95;9.68;;;;;;;3.13;69.01;99653.63;5093790;28;20505;-58
2023/10/22 04:27:14;;;;;;;12.35;7.43;;;;;;;3.11;69.38;99666.06;5075671;28;20036;-58
2023/10/22 04:29:42;;;;;;;10.98;6.97;;;;;;;3.15;69.65;99656.06;5093348;28;20052;-59
2023/10/22 04:32:07;;;;;;;7.07;4.93;;;;;;;3.16;68.59;99649.81;5093952;28;20071;-58
2023/10/22 04:34:33;;;;;;;6.10;4.10;;;;;;;3.21;67.90;99657.97;5093443;28;20090;-58
2023/10/22 04:36:59;;;;;;;6.65;3.78;;;;;;;3.27;68.19;99653.78;5075325;28;20044;-57
2023/10/22 04:39:24;;;;;;;6.55;4.00;;;;;;;3.28;68.87;99666.69;5093571;28;20063;-59
2023/10/22 04:41:51;;;;;;;7.70;4.38;;;;;;;3.33;68.89;99666.16;5093293;28;20043;-58
2023/10/22 04:44:16;;;;;;;7.97;3.85;;;;;;;3.40;69.47;99664.41;5092990;28;20497;-57
2023/10/22 04:46:42;;;;;;;8.68;3.83;;;;;;;3.45;67.99;99656.81;5093373;28;20093;-58
2023/10/22 04:49:07;;;;;;;7.82;3.88;;;;;;;3.41;68.62;99653.78;5074546;28;20048;-57
2023/10/22 04:51:36;;;;;;;8.80;4.32;;;;;;;3.40;68.28;99653.94;5093249;28;20040;-56
2023/10/22 04:54:02;;;;;;;7.13;4.03;;;;;;;3.35;68.38;99649.25;5075026;28;20096;-56
2023/10/22 04:56:28;;;;;;;7.10;4.30;;;;;;;3.40;68.75;99659.97;5093324;28;20044;-60
2023/10/22 04:58:54;;;;;;;6.07;3.83;;;;;;;3.35;68.05;99666.78;5092762;28;20166;-56
2023/10/22 05:01:19;;;;;;;9.70;4.20;;;;;;;3.33;68.36;99658.31;5093273;28;20455;-57
2023/10/22 05:03:45;;;;;;;8.82;4.05;;;;;;;3.43;68.65;99669.28;5093052;28;20044;-57
2023/10/22 05:06:11;;;;;;;6.88;4.50;;;;;;;3.41;68.49;99660.78;5092985;28;20036;-58
2023/10/22 05:08:38;;;;;;;8.32;4.15;;;;;;;3.40;68.37;99649.50;5074382;28;20131;-58
2023/10/22 05:11:05;;;;;;;8.55;4.25;;;;;;;3.34;67.86;99642.38;5092736;28;20043;-58
2023/10/22 05:13:34;;;;;;;9.15;4.25;;;;;;;3.32;67.32;99633.06;5092730;28;20413;-58
2023/10/22 05:16:00;;;;;;;5.70;4.15;;;;;;;3.25;67.86;99632.19;5092713;28;20035;-58
2023/10/22 05:18:26;;;;;;;21.08;5.03;;;;;;;3.25;67.98;99624.34;5074637;28;20051;-59
2023/10/22 05:20:52;;;;;;;6.40;4.22;;;;;;;3.26;69.02;99634.63;5092328;28;20409;-59
2023/10/22 05:23:18;;;;;;;9.25;4.45;;;;;;;3.24;68.29;99633.22;5092496;28;20500;-59
2023/10/22 05:25:44;;;;;;;7.20;4.65;;;;;;;3.22;68.21;99640.44;5073871;28;20120;-58
2023/10/22 05:28:09;;;;;;;6.63;4.20;;;;;;;3.21;68.75;99649.25;5092581;28;20073;-57
2023/10/22 05:30:35;;;;;;;8.25;4.38;;;;;;;3.26;69.26;99650.34;5092080;28;20519;-59
2023/10/22 05:33:01;;;;;;;7.15;4.93;;;;;;;3.28;68.76;99661.47;5074327;28;20394;-56
2023/10/22 05:35:27;;;;;;;12.70;4.25;;;;;;;3.34;69.24;99663.34;5092455;28;20109;-58
2023/10/22 05:37:53;;;;;;;8.27;4.47;;;;;;;3.41;69.61;99679.97;5092346;28;20052;-54
2023/10/22 05:40:19;;;;;;;8.85;4.90;;;;;;;3.44;68.76;99686.63;5074070;28;20050;-57
2023/10/22 05:42:45;;;;;;;10.02;4.82;;;;;;;3.37;69.59;99704.91;5092106;28;20044;-59
2023/10/22 05:45:10;;;;;;;8.68;5.18;;;;;;;3.37;69.70;99720.63;5057185;28;20044;-58
2023/10/22 05:47:37;;;;;;;8.98;5.07;;;;;;;3.28;70.29;99715.66;5091975;28;20412;-58
2023/10/22 05:50:04;;;;;;;9.13;5.32;;;;;;;3.21;70.24;99720.00;5071931;28;20123;-57
2023/10/22 05:52:29;;;;;;;10.35;5.68;;;;;;;3.23;70.68;99716.19;5054034;28;20090;-56
2023/10/22 05:54:55;;;;;;;7.90;5.60;;;;;;;3.32;71.09;99712.50;5071539;28;20056;-58
2023/10/22 05:57:23;;;;;;;12.15;6.18;;;;;;;3.34;70.62;99689.53;5072094;28;20056;-57
2023/10/22 05:59:49;;;;;;;11.48;6.97;;;;;;;3.37;70.95;99688.38;5071481;28;20048;-60
2023/10/22 06:02:15;;;;;;;12.00;7.45;;;;;;;3.25;70.76;99680.16;5071970;28;20071;-56
2023/10/22 06:04:41;;;;;;;12.93;8.15;;;;;;;3.32;71.50;99690.72;5053907;28;20049;-58
2023/10/22 06:07:09;;;;;;;12.02;7.50;;;;;;;3.36;70.93;99695.44;5072003;28;20032;-60
2023/10/22 06:09:35;;;;;;;15.18;7.07;;;;;;;3.45;71.12;99685.66;5053186;28;20587;-59
2023/10/22 06:12:02;;;;;;;10.82;6.78;;;;;;;3.53;70.60;99688.19;5070922;28;20048;-57
2023/10/22 06:14:27;;;;;;;10.15;6.55;;;;;;;3.52;70.58;99685.72;5084516;28;20422;-59
2023/10/22 06:16:53;;;;;;;14.48;7.70;;;;;;;3.55;71.41;99695.84;5073462;28;20051;-60
2023/10/22 06:19:19;;;;;;;14.23;6.50;;;;;;;3.52;71.15;99710.13;5091685;28;20062;-58
2023/10/22 06:21:45;;;;;;;11.30;6.70;;;;;;;3.50;71.37;99716.53;5091664;28;20494;-60
2023/10/22 06:24:11;;;;;;;10.52;5.93;;;;;;;3.47;71.47;99711.66;5091565;28;20040;-59
2023/10/22 06:26:37;;;;;;;9.32;6.65;;;;;;;3.45;71.32;99713.69;5073392;28;20521;-59
2023/10/22 06:29:02;;;;;;;13.13;6.22;;;;;;;3.37;72.03;99727.69;5091259;28;20048;-58
2023/10/22 06:31:28;;;;;;;10.60;6.40;;;;;;;3.36;71.74;99726.88;5091168;28;20081;-56
2023/10/22 06:33:54;;;;;;;16.20;7.70;;;;;;;3.31;72.43;99716.13;5073392;28;20043;-59
2023/10/22 06:36:21;;;;;;;18.40;8.82;;;;;;;3.22;73.56;99719.03;5091548;28;20440;-58
2023/10/22 06:38:48;;;;;;;13.73;8.27;;;;;;;3.30;73.86;99705.84;5091295;28;20416;-58
2023/10/22 06:41:20;;;;;;;21.42;9.82;;;;;;;3.28;73.96;99687.66;5091715;28;20490;-58
2023/10/22 06:43:47;;;;;;;23.25;10.75;;;;;;;3.27;75.00;99701.75;5077597;28;20093;-54
2023/10/22 06:46:13;;;;;;;21.85;10.50;;;;;;;3.23;76.49;99703.09;5095589;28;20032;-59
2023/10/22 06:48:39;;;;;;;25.75;10.70;;;;;;;3.34;76.79;99699.22;5076738;28;20078;-59
2023/10/22 06:51:15;;;;;;;16.30;9.15;;;;;;;3.33;76.25;99695.78;5095343;28;20127;-57
2023/10/22 06:53:42;;;;;;;17.08;9.38;;;;;;;3.25;76.61;99711.59;5077426;28;20036;-58
2023/10/22 06:56:08;;;;;;;14.45;8.98;;;;;;;3.25;78.29;99716.84;5094988;28;20655;-56
2023/10/22 06:58:35;;;;;;;18.25;9.63;;;;;;;3.32;77.86;99699.38;5091040;28;20044;-56
2023/10/22 07:01:09;;;;;;;18.98;10.05;;;;;;;3.42;78.13;99696.50;5092847;28;20089;-58
2023/10/22 07:03:45;;;;;;;13.75;8.35;;;;;;;3.40;76.94;99694.06;5090581;28;20048;-58
2023/10/22 07:06:11;;;;;;;17.17;8.95;;;;;;;3.37;77.55;99685.75;5074704;28;20049;-58
2023/10/22 07:08:36;;;;;;;18.40;9.98;;;;;;;3.39;78.05;99699.50;5056850;28;20057;-58
2023/10/22 07:11:02;;;;;;;17.30;10.18;;;;;;;3.51;79.56;99699.84;5074884;28;20489;-56
2023/10/22 07:13:28;;;;;;;18.83;10.65;;;;;;;3.66;79.54;99689.31;5056890;28;20485;-58
2023/10/22 07:15:54;;;;;;;28.52;13.23;;;;;;;3.70;77.71;99687.94;5074776;28;20063;-56
2023/10/22 07:18:20;;;;;;;29.80;14.90;;;;;;;3.71;76.94;99690.38;5073170;28;20501;-57
2023/10/22 07:20:47;;;;;;;32.50;16.08;;;;;;;3.69;77.22;99691.56;5069779;28;20060;-58
2023/10/22 07:23:13;;;;;;;29.00;14.57;;;;;;;3.58;76.16;99682.38;5054374;28;20383;-58
2023/10/22 07:25:38;;;;;;;31.65;15.15;;;;;;;3.48;76.62;99681.84;5054063;28;20052;-60
2023/10/22 07:28:05;;;;;;;31.23;14.57;;;;;;;3.39;76.77;99683.78;5054545;28;20036;-60
2023/10/22 07:30:31;;;;;;;30.13;14.45;;;;;;;3.38;76.57;99684.75;5061070;28;20084;-59
2023/10/22 07:32:57;;;;;;;25.17;13.15;;;;;;;3.44;76.51;99678.78;5055526;28;20521;-58
2023/10/22 07:35:23;;;;;;;29.00;13.70;;;;;;;3.48;75.49;99663.50;5073668;28;20032;-60
2023/10/22 07:37:48;;;;;;;25.52;13.32;;;;;;;3.46;74.69;99649.78;5073525;28;20044;-60
2023/10/22 07:40:17;;;;;;;31.70;13.60;;;;;;;3.41;74.30;99651.16;5073452;28;20498;-59
2023/10/22 07:42:48;;;;;;;30.02;12.75;;;;;;;3.48;74.86;99653.84;5073544;28;20558;-60
2023/10/22 07:45:14;;;;;;;29.67;12.93;;;;;;;3.55;74.99;99638.19;5071311;28;20037;-60
2023/10/22 07:47:41;;;;;;;30.15;13.10;;;;;;;3.64;75.03;99644.91;5073520;28;20486;-64
2023/10/22 07:50:09;;;;;;;26.55;11.82;;;;;;;3.72;74.46;99639.56;5034418;28;20083;-61
2023/10/22 07:52:35;;;;;;;28.25;14.00;;;;;;;3.78;74.37;99630.94;5052902;28;20048;-60
2023/10/22 07:55:01;;;;;;;23.48;11.80;;;;;;;3.74;74.06;99628.91;5052667;28;20044;-60
2023/10/22 07:57:28;;;;;;;23.15;11.57;;;;;;;3.76;73.58;99622.44;5053364;28;20053;-59
2023/10/22 07:59:58;;;;;;;21.63;11.75;;;;;;;3.90;73.40;99619.97;5053436;28;20072;-59
2023/10/22 08:02:24;;;;;;;21.38;11.23;;;;;;;3.94;73.51;99618.56;5053904;28;20120;-59
2023/10/22 08:04:49;;;;;;;22.02;11.20;;;;;;;3.97;73.14;99626.06;5035931;28;20514;-60
2023/10/22 08:07:18;;;;;;;22.45;11.98;;;;;;;3.93;72.70;99604.66;5054211;28;20033;-60
2023/10/22 08:09:47;;;;;;;28.10;11.30;;;;;;;3.95;72.70;99599.25;5053750;28;20494;-62
2023/10/22 08:12:13;;;;;;;23.45;11.82;;;;;;;3.95;72.39;99600.03;5053516;28;20112;-60
2023/10/22 08:14:40;;;;;;;25.33;12.10;;;;;;;3.98;73.40;99601.47;5053553;28;20047;-61
2023/10/22 08:17:06;;;;;;;23.05;12.35;;;;;;;4.06;72.57;99598.72;5034869;28;20118;-60
2023/10/22 08:19:31;;;;;;;26.30;12.50;;;;;;;4.08;72.34;99594.88;5052072;28;20072;-59
2023/10/22 08:21:57;;;;;;;21.45;11.40;;;;;;;4.10;72.16;99603.38;5069968;28;20048;-61
2023/10/22 08:24:23;;;;;;;26.15;13.63;;;;;;;4.14;71.90;99587.28;5070799;28;20041;-61
2023/10/22 08:26:49;;;;;;;24.10;13.02;;;;;;;4.21;72.20;99580.28;5073600;28;20083;-61
2023/10/22 08:29:14;;;;;;;25.75;13.45;;;;;;;4.24;72.40;99585.13;5073466;28;20048;-60
2023/10/22 08:31:40;;;;;;;24.50;12.90;;;;;;;4.36;71.29;99574.94;5073590;28;20127;-60
2023/10/22 08:34:05;;;;;;;26.05;12.65;;;;;;;4.49;71.37;99572.38;5073462;28;20044;-61
2023/10/22 08:36:32;;;;;;;26.25;13.90;;;;;;;4.55;70.92;99571.59;5073542;28;20106;-60
2023/10/22 08:38:58;;;;;;;27.13;13.45;;;;;;;4.55;71.16;99567.16;5073280;28;20040;-59
2023/10/22 08:41:26;;;;;;;26.85;13.48;;;;;;;4.57;70.27;99579.28;5071605;28;20047;-60
2023/10/22 08:43:52;;;;;;;28.65;14.07;;;;;;;4.49;70.63;99562.66;5072952;28;20090;-60
2023/10/22 08:46:18;;;;;;;34.92;15.40;;;;;;;4.60;71.50;99550.81;5054714;28;20044;-60
2023/10/22 08:48:44;;;;;;;27.27;13.60;;;;;;;4.72;70.28;99561.59;5043753;28;20139;-62
2023/10/22 08:51:10;;;;;;;24.23;14.48;;;;;;;4.85;69.60;99563.44;5054818;28;20051;-61
2023/10/22 08:53:37;;;;;;;25.23;13.82;;;;;;;4.89;69.37;99559.44;5072673;28;20051;-61
2023/10/22 08:56:03;;;;;;;27.48;14.48;;;;;;;4.89;69.87;99556.81;5072688;28;20048;-61
2023/10/22 08:58:30;;;;;;;28.60;15.48;;;;;;;4.93;69.60;99550.16;5072385;28;20068;-60
2023/10/22 09:00:56;;;;;;;28.40;14.38;;;;;;;4.97;69.90;99546.94;5071095;28;20055;-57
2023/10/22 09:03:25;;;;;;;26.55;15.07;;;;;;;4.97;70.24;99536.44;5072550;28;20048;-60
2023/10/22 09:05:53;;;;;;;26.35;15.00;;;;;;;5.05;69.31;99527.56;5054139;28;20052;-59
2023/10/22 09:08:19;;;;;;;28.40;15.35;;;;;;;5.13;69.32;99532.63;5072663;28;20048;-60
2023/10/22 09:10:45;;;;;;;30.95;16.27;;;;;;;5.14;68.04;99526.38;5072305;28;20037;-59
2023/10/22 09:13:22;;;;;;;27.88;15.27;;;;;;;5.09;68.50;99527.97;5071023;28;20147;-60
2023/10/22 09:15:52;;;;;;;29.48;15.98;;;;;;;5.10;69.02;99527.78;5072625;28;20075;-61
2023/10/22 09:18:18;;;;;;;38.35;17.05;;;;;;;5.10;68.02;99522.53;5072696;28;20076;-60
2023/10/22 09:20:45;;;;;;;30.42;17.67;;;;;;;5.06;67.08;99518.69;5067739;28;20110;-59
2023/10/22 09:23:12;;;;;;;34.13;17.85;;;;;;;5.08;68.42;99521.09;5052498;28;20274;-61
2023/10/22 09:25:39;;;;;;;31.88;17.35;;;;;;;5.10;68.16;99505.97;5052407;28;20456;-60
2023/10/22 09:28:15;;;;;;;31.20;17.55;;;;;;;4.97;67.24;99506.72;5052325;28;20044;-62
2023/10/22 09:30:41;;;;;;;31.38;17.65;;;;;;;4.92;68.85;99502.06;5051887;28;20573;-60
2023/10/22 09:33:10;;;;;;;35.22;19.45;;;;;;;5.03;68.78;99505.94;5052274;28;20045;-60
2023/10/22 09:35:37;;;;;;;33.10;18.25;;;;;;;5.11;68.18;99503.13;5050738;28;20420;-60
2023/10/22 09:38:03;;;;;;;33.78;18.45;;;;;;;5.09;68.15;99506.94;5052240;28;20433;-58
2023/10/22 09:40:32;;;;;;;31.40;18.50;;;;;;;5.05;68.67;99505.72;5051845;28;20047;-60
2023/10/22 09:43:00;;;;;;;37.08;19.45;;;;;;;5.07;68.41;99506.34;5050445;28;20127;-59
2023/10/22 09:45:26;;;;;;;40.50;21.00;;;;;;;5.17;69.30;99499.69;5050765;28;20075;-58
2023/10/22 09:47:56;;;;;;;37.03;20.00;;;;;;;5.23;68.44;99488.41;5036287;28;20077;-61
2023/10/22 09:50:22;;;;;;;33.70;18.77;;;;;;;5.16;67.77;99492.03;5070522;28;20051;-59
2023/10/22 09:52:50;;;;;;;35.10;18.95;;;;;;;5.17;68.53;99483.91;5071755;28;20445;-60
2023/10/22 09:55:17;;;;;;;33.85;18.88;;;;;;;5.19;68.41;99479.28;5071663;28;20033;-60
2023/10/22 09:57:46;;;;;;;34.67;19.58;;;;;;;5.20;67.87;99474.84;5071854;28;20086;-59
2023/10/22 10:00:12;;;;;;;31.67;18.75;;;;;;;5.01;67.61;99461.47;5071712;28;20127;-63
2023/10/22 10:02:42;;;;;;;32.00;18.33;;;;;;;5.07;68.53;99472.19;5072019;28;20052;-59
2023/10/22 10:05:10;;;;;;;27.48;17.38;;;;;;;5.03;68.32;99455.19;5071889;28;20073;-59
2023/10/22 10:07:38;;;;;;;34.35;17.52;;;;;;;5.09;67.99;99452.59;5071602;28;20048;-59
2023/10/22 10:10:05;;;;;;;29.95;17.33;;;;;;;5.10;68.01;99453.41;5071400;28;20090;-60
2023/10/22 10:12:34;;;;;;;30.48;17.77;;;;;;;5.06;68.23;99460.03;5070295;28;20040;-60
2023/10/22 10:15:00;;;;;;;30.25;16.98;;;;;;;5.00;67.83;99457.22;5070260;28;20098;-61
2023/10/22 10:17:25;;;;;;;28.00;17.63;;;;;;;5.05;68.31;99459.25;5071090;28;20084;-60
2023/10/22 10:19:51;;;;;;;25.83;15.80;;;;;;;5.00;68.11;99446.72;5073324;28;20048;-60
2023/10/22 10:22:38;;;;;;;27.42;16.85;;;;;;;5.00;68.28;99462.50;5073841;28;20607;-60
2023/10/22 10:25:29;;;;;;;25.90;16.88;;;;;;;4.95;68.21;99454.38;5073786;28;20036;-60
2023/10/22 10:27:54;;;;;;;25.38;16.25;;;;;;;4.91;68.87;99465.47;5091569;28;20569;-60
2023/10/22 10:30:21;;;;;;;31.63;18.30;;;;;;;4.90;68.84;99458.63;5091656;28;20040;-61
2023/10/22 10:32:49;;;;;;;24.50;14.95;;;;;;;4.90;67.93;99462.03;5073324;28;20143;-60
2023/10/22 10:35:15;;;;;;;20.95;14.27;;;;;;;4.87;68.92;99459.00;5091178;28;20097;-60
2023/10/22 10:38:16;;;;;;;25.13;14.90;;;;;;;4.91;68.75;99461.06;5091377;28;20040;-59
2023/10/22 10:40:47;;;;;;;24.33;14.55;;;;;;;4.88;68.53;99444.88;5073238;28;20050;-59
2023/10/22 10:43:13;;;;;;;;;;;;;;;4.82;68.36;99440.41;5091817;28;20040;-60
2023/10/22 10:45:43;;;;;;;25.45;14.68;;;;;;;4.87;67.91;99435.38;5091106;28;19924;-59
2023/10/22 10:48:27;;;;;;;;;;;;;;;4.89;69.14;99436.78;5091977;28;20054;-60
2023/10/22 10:51:18;;;;;;;22.88;14.02;;;;;;;4.92;68.59;99432.97;5091198;28;19974;-60
2023/10/22 10:54:24;;;;;;;23.70;14.80;;;;;;;4.80;68.74;99438.00;5091246;28;20116;-60
2023/10/22 10:56:55;;;;;;;24.23;14.50;;;;;;;4.76;69.60;99432.34;5091577;28;20071;-60
2023/10/22 10:59:30;;;;;;;23.88;13.82;;;;;;;4.76;69.02;99421.00;5091132;28;20040;-59
2023/10/22 11:02:01;;;;;;;21.77;14.13;;;;;;;4.77;67.87;99423.44;5091232;28;20397;-62
2023/10/22 11:04:30;;;;;;;23.50;14.18;;;;;;;4.76;68.10;99427.09;5072966;28;20044;-61
2023/10/22 11:06:57;;;;;;;22.15;13.70;;;;;;;4.74;68.45;99423.03;5091572;28;20036;-60
2023/10/22 11:09:24;;;;;;;21.60;13.10;;;;;;;4.72;68.67;99417.16;5073074;28;20416;-59
2023/10/22 11:12:01;;;;;;;25.15;13.63;;;;;;;4.66;69.22;99410.06;5091218;28;20043;-62
2023/10/22 11:14:27;;;;;;;24.45;14.48;;;;;;;4.64;69.00;99414.72;5091260;28;20044;-60
2023/10/22 11:16:54;;;;;;;24.00;13.57;;;;;;;4.67;69.42;99412.50;5091277;28;20038;-60
2023/10/22 11:19:24;;;;;;;22.63;13.75;;;;;;;4.68;69.65;99414.13;5072956;28;20048;-59
2023/10/22 11:21:50;;;;;;;20.33;13.50;;;;;;;4.74;68.73;99420.41;5091179;28;20056;-60
2023/10/22 11:24:17;;;;;;;22.70;14.05;;;;;;;4.77;68.80;99415.56;5091045;28;20044;-62
2023/10/22 11:26:45;;;;;;;22.38;13.95;;;;;;;4.68;69.62;99419.38;5073185;28;20044;-60
2023/10/22 11:29:11;;;;;;;23.08;13.73;;;;;;;4.69;69.70;99412.31;5094381;28;20142;-60